createdAt,value
2018-12-17T00:00:30.852Z,19.53
2018-12-17T00:03:38.497Z,20.83
2018-12-17T00:07:01.448Z,19.53
2018-12-17T00:10:10.360Z,20.73
2018-12-17T00:13:17.872Z,20.43
2018-12-17T00:16:26.077Z,20.70
2018-12-17T00:19:50.053Z,21.27
2018-12-17T00:22:57.877Z,20.90
2018-12-17T00:26:06.284Z,20.70
2018-12-17T00:29:14.035Z,20.10
2018-12-17T00:32:21.716Z,20.07
2018-12-17T00:35:29.987Z,19.10
2018-12-17T00:38:53.945Z,20.87
2018-12-17T00:42:01.412Z,21.43
2018-12-17T00:45:10.377Z,21.07
2018-12-17T00:48:18.272Z,20.33
2018-12-17T00:51:26.360Z,20.03
2018-12-17T00:54:33.940Z,20.63
2018-12-17T00:57:41.616Z,21.47
2018-12-17T01:01:06.012Z,21.27
2018-12-17T01:04:13.527Z,20.77
2018-12-17T01:07:25.068Z,20.00
2018-12-17T01:10:33.397Z,20.03
2018-12-17T01:13:43.476Z,20.90
2018-12-17T01:16:51.181Z,20.67
2018-12-17T01:19:58.796Z,19.37
2018-12-17T01:23:06.277Z,19.73
2018-12-17T01:26:14.316Z,20.33
2018-12-17T01:29:21.899Z,21.67
2018-12-17T01:32:29.487Z,21.37
2018-12-17T01:35:36.999Z,22.47
2018-12-17T01:38:59.986Z,21.80
2018-12-17T01:42:08.410Z,21.20
2018-12-17T01:45:16.384Z,21.13
2018-12-17T01:48:23.964Z,20.50
2018-12-17T01:51:31.479Z,21.10
2018-12-17T01:54:38.980Z,21.03
2018-12-17T01:58:01.708Z,21.97
2018-12-17T02:01:24.179Z,21.37
2018-12-17T02:04:46.898Z,20.87
2018-12-17T02:07:54.509Z,22.33
2018-12-17T02:11:02.136Z,21.90
2018-12-17T02:14:09.820Z,22.73
2018-12-17T02:17:33.308Z,20.93
2018-12-17T02:20:40.906Z,22.17
2018-12-17T02:23:48.384Z,22.67
2018-12-17T02:26:55.904Z,21.37
2018-12-17T02:30:03.517Z,21.70
2018-12-17T02:33:26.231Z,21.50
2018-12-17T02:36:48.817Z,21.30
2018-12-17T02:39:56.444Z,21.50
2018-12-17T02:43:03.988Z,19.90
2018-12-17T02:46:11.597Z,21.67
2018-12-17T02:49:19.832Z,20.83
2018-12-17T02:52:27.722Z,22.27
2018-12-17T02:55:50.527Z,21.60
2018-12-17T02:59:13.253Z,22.33
2018-12-17T03:02:37.007Z,23.47
2018-12-17T03:05:44.609Z,23.40
2018-12-17T03:08:52.621Z,22.83
2018-12-17T03:12:00.204Z,22.70
2018-12-17T03:15:22.869Z,23.70
2018-12-17T03:18:30.858Z,22.47
2018-12-17T03:21:38.385Z,23.50
2018-12-17T03:24:45.944Z,21.93
2018-12-17T03:28:08.771Z,25.97
2018-12-17T03:31:31.300Z,23.62
2018-12-17T03:34:38.764Z,25.90
2018-12-17T03:38:01.981Z,23.83
2018-12-17T03:41:09.581Z,24.33
2018-12-17T03:44:17.112Z,24.30
2018-12-17T03:47:24.600Z,25.23
2018-12-17T03:50:32.220Z,24.53
2018-12-17T03:53:39.704Z,23.27
2018-12-17T03:56:47.236Z,23.83
2018-12-17T03:59:54.820Z,23.40
2018-12-17T04:03:02.299Z,25.13
2018-12-17T04:06:25.988Z,23.07
2018-12-17T04:09:33.532Z,23.83
2018-12-17T04:12:41.419Z,23.60
2018-12-17T04:15:48.999Z,25.57
2018-12-17T04:19:12.681Z,24.83
2018-12-17T04:22:20.181Z,24.90
2018-12-17T04:25:27.756Z,26.10
2018-12-17T04:28:35.394Z,25.67
2018-12-17T04:31:42.958Z,24.83
2018-12-17T04:34:52.006Z,26.43
2018-12-17T04:37:59.604Z,25.47
2018-12-17T04:41:07.088Z,25.07
2018-12-17T04:44:15.008Z,27.33
2018-12-17T04:47:22.483Z,26.73
2018-12-17T04:50:30.103Z,26.03
2018-12-17T04:53:37.596Z,27.13
2018-12-17T04:56:45.072Z,26.70
2018-12-17T05:00:08.584Z,25.00
2018-12-17T05:03:16.167Z,26.10
2018-12-17T05:06:23.641Z,27.63
2018-12-17T05:09:31.672Z,26.67
2018-12-17T05:12:39.140Z,26.63
2018-12-17T05:16:02.030Z,29.27
2018-12-17T05:19:10.849Z,27.77
2018-12-17T05:22:34.416Z,27.70
2018-12-17T05:25:56.780Z,25.07
2018-12-17T05:29:21.643Z,26.97
2018-12-17T05:32:28.840Z,27.80
2018-12-17T05:35:37.182Z,28.10
2018-12-17T05:38:44.819Z,29.47
2018-12-17T05:41:52.644Z,27.77
2018-12-17T05:45:15.552Z,26.90
2018-12-17T05:48:38.546Z,27.03
2018-12-17T05:52:00.957Z,27.63
2018-12-17T05:55:23.808Z,26.13
2018-12-17T05:58:31.539Z,27.10
2018-12-17T06:01:39.108Z,27.57
2018-12-17T06:04:46.607Z,26.10
2018-12-17T06:07:54.293Z,27.13
2018-12-17T06:11:01.912Z,27.03
2018-12-17T06:14:09.428Z,27.70
2018-12-17T06:17:17.095Z,27.20
2018-12-17T06:20:39.394Z,26.43
2018-12-17T06:23:46.977Z,26.57
2018-12-17T06:26:54.549Z,26.83
2018-12-17T06:30:02.085Z,26.77
2018-12-17T06:33:15.470Z,24.67
2018-12-17T06:36:19.693Z,27.07
2018-12-17T06:39:27.244Z,25.67
2018-12-17T06:42:46.680Z,26.90
2018-12-17T06:46:06.669Z,26.00
2018-12-17T06:49:29.404Z,26.10
2018-12-17T06:52:36.915Z,25.00
2018-12-17T06:55:44.543Z,25.20
2018-12-17T06:58:52.461Z,26.63
2018-12-17T07:02:15.831Z,26.40
2018-12-17T07:05:23.397Z,25.43
2018-12-17T07:08:30.963Z,24.27
2018-12-17T07:11:38.508Z,25.20
2018-12-17T07:15:02.348Z,27.07
2018-12-17T07:18:10.489Z,26.53
2018-12-17T07:21:30.072Z,24.80
2018-12-17T07:24:50.140Z,27.77
2018-12-17T07:27:57.640Z,28.20
2018-12-17T07:31:05.258Z,28.17
2018-12-17T07:34:13.683Z,27.27
2018-12-17T07:37:21.609Z,27.33
2018-12-17T07:40:29.193Z,26.97
2018-12-17T07:43:48.545Z,27.43
2018-12-17T07:46:56.168Z,27.30
2018-12-17T07:50:03.875Z,27.80
2018-12-17T07:53:23.430Z,26.67
2018-12-17T07:56:45.872Z,25.17
2018-12-17T08:00:08.044Z,25.05
2018-12-17T08:03:15.546Z,25.70
2018-12-17T08:06:24.649Z,26.03
2018-12-17T08:09:32.540Z,26.77
2018-12-17T08:19:29.008Z,27.30
2018-12-17T08:22:37.512Z,26.63
2018-12-17T08:29:03.820Z,26.87
2018-12-17T08:32:11.549Z,27.13
2018-12-17T08:35:31.698Z,25.65
2018-12-17T08:38:39.216Z,26.20
2018-12-17T08:41:46.912Z,28.50
2018-12-17T08:44:54.797Z,26.97
2018-12-17T08:48:03.056Z,27.17
2018-12-17T08:51:10.732Z,27.57
2018-12-17T08:54:18.241Z,27.93
2018-12-17T08:57:25.840Z,28.40
2018-12-17T09:00:33.416Z,28.10
2018-12-17T09:03:41.632Z,28.43
2018-12-17T09:06:49.346Z,26.10
2018-12-17T09:09:56.846Z,27.07
2018-12-17T09:13:20.935Z,27.10
2018-12-17T09:16:44.693Z,28.00
2018-12-17T09:20:10.161Z,25.77
2018-12-17T09:23:17.724Z,27.43
2018-12-17T09:26:25.200Z,29.63
2018-12-17T09:29:32.997Z,26.27
2018-12-17T09:32:40.488Z,28.87
2018-12-17T09:35:48.036Z,26.80
2018-12-17T09:39:10.756Z,28.90
2018-12-17T09:42:18.275Z,27.47
2018-12-17T09:45:25.772Z,27.77
2018-12-17T09:48:33.364Z,29.37
2018-12-17T09:51:40.854Z,29.37
2018-12-17T09:55:02.300Z,28.73
2018-12-17T09:58:28.016Z,28.57
2018-12-17T10:01:49.459Z,29.93
2018-12-17T10:04:57.033Z,30.10
2018-12-17T10:08:05.071Z,29.77
2018-12-17T10:11:12.724Z,29.83
2018-12-17T10:14:20.236Z,29.77
2018-12-17T10:17:27.840Z,30.03
2018-12-17T10:20:50.293Z,28.93
2018-12-17T10:24:14.676Z,30.70
2018-12-17T10:27:22.261Z,30.27
2018-12-17T10:30:32.686Z,28.67
2018-12-17T10:33:39.320Z,27.73
2018-12-17T10:37:01.948Z,28.27
2018-12-17T10:40:23.188Z,29.30
2018-12-17T10:43:48.896Z,27.60
2018-12-17T10:47:08.560Z,27.40
2018-12-17T10:50:15.991Z,27.03
2018-12-17T10:53:23.468Z,29.23
2018-12-17T10:56:30.992Z,27.53
2018-12-17T10:59:38.584Z,28.20
2018-12-17T11:02:46.324Z,28.03
2018-12-17T11:05:55.192Z,28.27
2018-12-17T11:09:02.979Z,26.63
2018-12-17T11:12:10.632Z,26.70
2018-12-17T11:15:18.228Z,26.70
2018-12-17T11:18:39.880Z,29.03
2018-12-17T11:21:47.852Z,26.60
2018-12-17T11:24:55.556Z,26.97
2018-12-17T11:28:15.668Z,27.80
2018-12-17T11:31:39.748Z,24.87
2018-12-17T11:34:47.379Z,27.57
2018-12-17T11:37:54.948Z,28.90
2018-12-17T11:41:02.540Z,28.57
2018-12-17T11:44:10.254Z,27.27
2018-12-17T11:47:17.866Z,31.00
2018-12-17T11:50:25.428Z,31.03
2018-12-17T11:53:53.292Z,29.97
2018-12-17T11:58:03.681Z,29.30
2018-12-17T12:01:12.487Z,28.97
2018-12-17T12:04:20.613Z,29.07
2018-12-17T12:07:28.577Z,29.33
2018-12-17T12:10:51.308Z,28.87
2018-12-17T12:14:12.491Z,28.30
2018-12-17T12:17:39.836Z,28.20
2018-12-17T12:21:01.428Z,26.90
2018-12-17T12:24:09.417Z,25.63
2018-12-17T12:27:17.348Z,26.10
2018-12-17T12:30:37.422Z,25.10
2018-12-17T12:34:01.332Z,25.60
2018-12-17T12:37:24.743Z,24.93
2018-12-17T12:40:33.222Z,23.50
2018-12-17T12:43:41.205Z,25.10
2018-12-17T12:46:48.720Z,25.93
2018-12-17T12:49:56.401Z,24.00
2018-12-17T12:53:03.975Z,25.70
2018-12-17T12:56:11.505Z,23.67
2018-12-17T12:59:19.366Z,24.23
2018-12-17T13:02:26.854Z,24.17
2018-12-17T13:05:47.492Z,24.53
2018-12-17T13:09:09.436Z,23.93
2018-12-17T13:12:30.353Z,24.82
2018-12-17T13:15:37.973Z,23.97
2018-12-17T13:18:45.727Z,23.93
2018-12-17T13:22:12.885Z,24.90
2018-12-17T13:25:41.823Z,27.10
2018-12-17T13:28:49.328Z,26.47
2018-12-17T13:31:57.316Z,23.97
2018-12-17T13:35:05.085Z,24.83
2018-12-17T13:38:13.316Z,25.20
2018-12-17T13:41:20.780Z,24.93
2018-12-17T13:44:49.536Z,24.73
2018-12-17T13:47:57.092Z,25.30
2018-12-17T13:51:10.232Z,26.47
2018-12-17T13:54:18.252Z,26.03
2018-12-17T13:57:42.629Z,25.33
2018-12-17T14:01:03.061Z,25.17
2018-12-17T14:04:10.738Z,23.60
2018-12-17T14:07:18.372Z,25.53
2018-12-17T14:10:58.577Z,26.90
2018-12-17T14:14:06.219Z,25.33
2018-12-17T14:17:18.844Z,24.73
2018-12-17T14:20:55.512Z,25.43
2018-12-17T14:24:03.912Z,25.50
2018-12-17T14:27:11.513Z,25.93
2018-12-17T14:30:19.104Z,25.37
2018-12-17T14:33:26.599Z,24.27
2018-12-17T14:36:47.091Z,25.27
2018-12-17T14:40:14.159Z,26.37
2018-12-17T14:43:21.664Z,24.67
2018-12-17T14:46:33.745Z,33.48
2018-12-17T14:49:41.670Z,25.27
2018-12-17T14:52:49.145Z,23.93
2018-12-17T14:56:15.507Z,24.80
2018-12-17T14:59:23.853Z,24.63
2018-12-17T15:02:31.713Z,23.97
2018-12-17T15:05:39.324Z,23.83
2018-12-17T15:08:59.726Z,24.50
2018-12-17T15:12:08.225Z,25.40
2018-12-17T15:15:29.802Z,26.47
2018-12-17T15:18:51.122Z,24.30
2018-12-17T15:22:17.052Z,23.97
2018-12-17T15:25:24.648Z,24.37
2018-12-17T15:28:32.204Z,22.90
2018-12-17T15:31:43.037Z,23.93
2018-12-17T15:34:49.264Z,25.70
2018-12-17T15:37:57.252Z,24.13
2018-12-17T15:41:04.676Z,23.67
2018-12-17T15:44:28.954Z,22.27
2018-12-17T15:47:37.148Z,23.27
2018-12-17T15:51:01.743Z,22.57
2018-12-17T15:54:09.372Z,22.73
2018-12-17T15:57:16.944Z,22.87
2018-12-17T16:00:24.449Z,23.33
2018-12-17T16:03:31.917Z,22.43
2018-12-17T16:06:53.000Z,28.00
2018-12-17T16:10:00.570Z,23.90
2018-12-17T16:13:08.242Z,23.53
2018-12-17T16:16:31.352Z,22.02
2018-12-17T16:19:38.940Z,22.50
2018-12-17T16:22:46.516Z,21.43
2018-12-17T16:25:54.246Z,21.10
2018-12-17T16:29:01.970Z,21.73
2018-12-17T16:32:09.516Z,22.47
2018-12-17T16:35:17.136Z,21.33
2018-12-17T16:38:40.381Z,20.67
2018-12-17T16:41:47.900Z,20.93
2018-12-17T16:44:55.539Z,22.17
2018-12-17T16:48:03.380Z,19.77
2018-12-17T16:51:11.112Z,20.50
2018-12-17T16:54:18.589Z,20.63
2018-12-17T16:57:26.124Z,20.37
2018-12-17T17:00:33.615Z,22.63
2018-12-17T17:03:55.976Z,20.20
2018-12-17T17:07:18.800Z,20.83
2018-12-17T17:10:26.595Z,19.77
2018-12-17T17:13:34.211Z,20.63
2018-12-17T17:16:54.949Z,20.37
2018-12-17T17:20:02.480Z,20.37
2018-12-17T17:23:10.000Z,21.03
2018-12-17T17:26:17.507Z,20.93
2018-12-17T17:29:44.634Z,19.43
2018-12-17T17:33:07.699Z,18.37
2018-12-17T17:36:15.315Z,18.80
2018-12-17T17:39:22.892Z,19.73
2018-12-17T17:42:42.084Z,20.90
2018-12-17T17:45:49.696Z,20.13
2018-12-17T17:48:57.246Z,20.30
2018-12-17T17:52:16.976Z,20.17
2018-12-17T17:55:39.804Z,19.27
2018-12-17T17:58:48.581Z,21.33
2018-12-17T18:01:56.596Z,19.43
2018-12-17T18:05:04.523Z,20.40
2018-12-17T18:08:11.967Z,20.77
2018-12-17T18:11:19.458Z,20.50
2018-12-17T18:14:27.295Z,19.73
2018-12-17T18:17:52.697Z,19.80
2018-12-17T18:21:18.792Z,21.20
2018-12-17T18:24:44.243Z,20.47
2018-12-17T18:28:08.019Z,20.20
2018-12-17T18:31:29.087Z,19.47
2018-12-17T18:34:36.575Z,22.07
2018-12-17T18:37:44.150Z,21.27
2018-12-17T18:40:52.196Z,19.17
2018-12-17T18:44:17.754Z,20.60
2018-12-17T18:47:44.908Z,20.67
2018-12-17T18:51:07.750Z,21.50
2018-12-17T18:54:26.222Z,21.60
2018-12-17T18:57:45.289Z,22.30
2018-12-17T19:00:53.212Z,20.80
2018-12-17T19:04:00.808Z,21.77
2018-12-17T19:07:08.472Z,20.40
2018-12-17T19:10:15.974Z,20.13
2018-12-17T19:13:23.848Z,18.50
2018-12-17T19:16:31.375Z,19.17
2018-12-17T19:20:00.530Z,21.20
2018-12-17T19:23:08.196Z,18.77
2018-12-17T19:26:15.783Z,19.87
2018-12-17T19:29:23.297Z,20.33
2018-12-17T19:32:30.880Z,18.60
2018-12-17T19:35:48.332Z,20.07
2018-12-17T19:38:55.841Z,20.10
2018-12-17T19:42:03.657Z,19.13
2018-12-17T19:45:11.409Z,18.97
2018-12-17T19:48:37.428Z,19.40
2018-12-17T19:51:44.977Z,19.30
2018-12-17T19:54:52.471Z,18.43
2018-12-17T19:57:59.954Z,18.70
2018-12-17T20:01:07.509Z,17.90
2018-12-17T20:04:30.488Z,20.70
2018-12-17T20:07:38.141Z,17.83
2018-12-17T20:10:46.532Z,19.70
2018-12-17T20:13:54.120Z,17.83
2018-12-17T20:17:01.629Z,17.87
2018-12-17T20:20:10.111Z,18.53
2018-12-17T20:23:17.615Z,17.87
2018-12-17T20:26:25.150Z,19.07
2018-12-17T20:29:32.736Z,18.80
2018-12-17T20:32:53.716Z,18.57
2018-12-17T20:36:13.432Z,18.23
2018-12-17T20:39:20.968Z,19.00
2018-12-17T20:42:29.287Z,19.20
2018-12-17T20:45:37.252Z,19.23
2018-12-17T20:48:45.142Z,19.13
2018-12-17T20:52:04.139Z,19.33
2018-12-17T20:58:31.161Z,20.40
2018-12-17T21:01:51.024Z,19.45
2018-12-17T21:04:58.496Z,18.57
2018-12-17T21:08:06.083Z,20.37
2018-12-17T21:14:32.560Z,19.63
2018-12-17T21:17:59.992Z,18.87
2018-12-17T21:21:20.510Z,19.23
2018-12-17T21:24:40.585Z,19.27
2018-12-17T21:27:48.389Z,18.97
2018-12-17T21:34:15.931Z,19.40
2018-12-17T21:37:35.497Z,18.47
2018-12-17T21:40:57.904Z,18.45
2018-12-17T21:44:05.747Z,18.97
2018-12-17T21:47:13.380Z,18.93
2018-12-17T21:50:35.045Z,20.43
2018-12-17T21:53:42.556Z,19.07
2018-12-17T22:00:10.671Z,20.63
2018-12-17T22:03:18.287Z,19.90
2018-12-17T22:06:41.012Z,18.93
2018-12-17T22:10:03.824Z,19.93
2018-12-17T22:13:11.369Z,21.17
2018-12-17T22:16:18.936Z,20.23
2018-12-17T22:19:26.559Z,21.23
2018-12-17T22:22:47.696Z,20.83
2018-12-17T22:25:57.383Z,20.27
2018-12-17T22:29:17.470Z,21.03
2018-12-17T22:32:37.102Z,21.90
2018-12-17T22:35:59.741Z,21.33
2018-12-17T22:39:09.372Z,21.50
2018-12-17T22:42:17.404Z,22.43
2018-12-17T22:45:25.015Z,21.03
2018-12-17T22:48:32.915Z,20.40
2018-12-17T22:51:40.387Z,21.13
2018-12-17T22:55:00.397Z,21.50
2018-12-17T22:58:20.165Z,20.67
2018-12-17T23:01:27.667Z,20.50
2018-12-17T23:04:35.516Z,20.60
2018-12-17T23:07:43.369Z,20.97
2018-12-17T23:11:07.972Z,21.03
2018-12-17T23:14:45.477Z,20.93
2018-12-17T23:17:52.425Z,21.17
2018-12-17T23:21:00.480Z,21.60
2018-12-17T23:24:08.591Z,21.57
2018-12-17T23:27:16.170Z,21.47
2018-12-17T23:30:24.708Z,19.23
2018-12-17T23:33:32.969Z,21.57
2018-12-17T23:36:41.035Z,20.80
2018-12-17T23:39:48.969Z,20.90
2018-12-17T23:42:56.875Z,20.47
2018-12-17T23:46:04.552Z,20.33
2018-12-17T23:49:25.132Z,20.53
2018-12-17T23:52:32.852Z,20.53
2018-12-17T23:55:40.451Z,20.23
2018-12-17T23:58:48.647Z,21.00
